Fort Myers, FL

12:11 AM EST on December 23, 2014 (GMT -0500)
KFLFORTM46 | Change Station
CLOSE
Current Station
Personal Weather Station
Location: Fort Myers, FL
Elevation: 18 ft
Nearby Weather Stations

Elev 18 ft 26.46 °N, 81.78 °W | Updated 28 days ago

Fog
Fog
70 °F
Feels Like 70 °F
N
5
Wind Variable Wind from SSE
Gusts 8 mph

Today
High -- | Low -- °F
--% Chance of Precip.
Yesterday
High -- | Low -- °F
Precip. -- in
7:11 AM 5:40 PM
New Moon, 2% visible
Pressure 29.96 in
Visibility 9.0 miles
Clouds Clear
Dew Point 66 °F
Humidity 89%
Rainfall 0.00 in
Snow Depth Not available.
UV 0 out of 12
Pollen 3.60 out of 12
Air Quality Not available.
Flu Activity Not available.
METAR KRSW 230453Z 15003KT 9SM CLR 20/19 A2996 RMK AO2 SLP143 T02000194 402780189

More Conditions Fewer Conditions

Pressure 29.96 in
Visibility 9.0 miles
Clouds Clear
Dew Point 66 °F
Humidity 89%
Rainfall 0.00 in
Snow Depth Not available.
UV 0 out of 12
Pollen 3.60 out of 12
Air Quality Not available.
Flu Activity Not available.
METAR KRSW 230453Z 15003KT 9SM CLR 20/19 A2996 RMK AO2 SLP143 T02000194 402780189

More Conditions Fewer Conditions

10-Day Weather Forecast

Almanac

Astronomy

Dec. 23, 2014 Rise Set
Actual Time
Civil Twilight
Nautical Twilight
Astronomical Twilight
Moon
Length of Visible Light
Length of Day
Tomorrow will be .
, % of the Moon is Illuminated

Today's Extremes

State Highs State Lows

Community

WunderPhotos

Upload Photos

1,779,781 photos uploaded!

WunderBlogs® & News

Nearby

Air Quality

  Air Quality AQ Index Pollutant
Not available.

Snow Depth

Station Depth Elevation

Earthquake Activity

City Distance Mag. Time & Date
Minimum magnitude displayed is 2.5.

Coastal Water Temperatures

Place Temperature

Nearby Weather Stations